createdAt,value
2023-01-12T00:01:46.939Z,21.37
2023-01-12T00:04:15.081Z,26.77
2023-01-12T00:06:43.173Z,34.47
2023-01-12T00:09:11.640Z,33.57
2023-01-12T00:11:39.873Z,24.93
2023-01-12T00:14:08.228Z,20.47
2023-01-12T00:16:37.752Z,23.30
2023-01-12T00:19:15.643Z,32.03
2023-01-12T00:21:50.174Z,25.90
2023-01-12T00:24:18.219Z,24.43
2023-01-12T00:26:46.735Z,27.40
2023-01-12T00:29:14.953Z,27.83
2023-01-12T00:31:42.586Z,24.47
2023-01-12T00:34:12.066Z,38.43
2023-01-12T00:36:39.975Z,21.10
2023-01-12T00:39:07.679Z,23.40
2023-01-12T00:41:53.006Z,37.73
2023-01-12T00:44:38.373Z,21.37
2023-01-12T00:47:08.579Z,25.30
2023-01-12T00:49:38.020Z,23.40
2023-01-12T00:52:07.640Z,19.63
2023-01-12T00:54:36.752Z,21.77
2023-01-12T00:57:05.083Z,22.27
2023-01-12T00:59:32.844Z,31.40
2023-01-12T01:02:00.993Z,27.33
2023-01-12T01:04:29.108Z,23.87
2023-01-12T01:06:58.136Z,16.80
2023-01-12T01:09:26.210Z,20.27
2023-01-12T01:11:53.871Z,16.53
2023-01-12T01:14:21.716Z,16.47
2023-01-12T01:16:49.926Z,18.43
2023-01-12T01:19:17.949Z,14.53
2023-01-12T01:21:45.734Z,20.53
2023-01-12T01:24:15.136Z,32.87
2023-01-12T01:26:43.544Z,22.30
2023-01-12T01:29:11.745Z,26.23
2023-01-12T01:31:39.605Z,23.17
2023-01-12T01:34:07.329Z,15.37
2023-01-12T01:36:36.773Z,17.27
2023-01-12T01:39:05.240Z,16.23
2023-01-12T01:41:34.829Z,16.20
2023-01-12T01:44:03.877Z,16.83
2023-01-12T01:46:37.481Z,23.13
2023-01-12T01:49:14.589Z,14.03
2023-01-12T01:51:42.766Z,14.93
2023-01-12T01:54:10.495Z,15.60
2023-01-12T01:56:39.553Z,21.50
2023-01-12T01:59:10.055Z,15.10
2023-01-12T02:01:38.765Z,22.20
2023-01-12T02:04:06.999Z,15.73
2023-01-12T02:06:34.993Z,15.23
2023-01-12T02:09:05.640Z,23.17
2023-01-12T02:11:50.913Z,13.90
2023-01-12T02:14:37.222Z,13.60
2023-01-12T02:17:11.991Z,19.90
2023-01-12T02:19:55.680Z,18.03
2023-01-12T02:22:37.274Z,13.17
2023-01-12T02:25:18.918Z,24.80
2023-01-12T02:27:56.707Z,12.50
2023-01-12T02:30:41.556Z,26.50
2023-01-12T02:33:22.410Z,15.60
2023-01-12T02:35:54.055Z,14.03
2023-01-12T02:38:27.207Z,16.00
2023-01-12T02:41:01.063Z,17.50
2023-01-12T02:43:29.377Z,17.27
2023-01-12T02:46:00.155Z,13.53
2023-01-12T02:48:31.684Z,9.60
2023-01-12T02:51:02.245Z,16.37
2023-01-12T02:53:34.716Z,14.00
2023-01-12T02:56:04.832Z,20.03
2023-01-12T02:58:34.219Z,18.30
2023-01-12T03:01:03.112Z,12.83
2023-01-12T03:03:36.160Z,19.00
2023-01-12T03:06:06.044Z,20.53
2023-01-12T03:08:34.332Z,20.83
2023-01-12T03:11:05.461Z,14.20
2023-01-12T03:13:36.042Z,13.30
2023-01-12T03:16:06.153Z,15.43
2023-01-12T03:18:36.404Z,18.17
2023-01-12T03:21:06.670Z,11.80
2023-01-12T03:23:38.088Z,15.63
2023-01-12T03:26:06.358Z,19.50
2023-01-12T03:28:35.299Z,11.77
2023-01-12T03:31:05.270Z,11.10
2023-01-12T03:33:33.348Z,11.87
2023-01-12T03:36:07.447Z,10.13
2023-01-12T03:38:39.822Z,16.50
2023-01-12T03:41:11.387Z,16.47
2023-01-12T03:43:41.148Z,16.90
2023-01-12T03:46:12.482Z,10.70
2023-01-12T03:48:45.485Z,13.43
2023-01-12T03:51:16.915Z,9.70
2023-01-12T03:53:45.884Z,14.83
2023-01-12T03:56:14.117Z,6.93
2023-01-12T03:58:43.729Z,14.27
2023-01-12T04:01:12.021Z,13.03
2023-01-12T04:03:39.877Z,11.07
2023-01-12T04:06:08.349Z,12.80
2023-01-12T04:08:37.668Z,14.77
2023-01-12T04:11:25.685Z,22.13
2023-01-12T04:16:42.668Z,18.00
2023-01-12T04:19:10.838Z,12.37
2023-01-12T04:21:56.089Z,16.63
2023-01-12T04:24:25.689Z,14.20
2023-01-12T04:26:53.365Z,14.90
2023-01-12T04:29:21.013Z,11.87
2023-01-12T04:31:48.971Z,13.50
2023-01-12T04:34:17.069Z,9.07
2023-01-12T04:36:45.044Z,14.37
2023-01-12T04:39:13.232Z,12.47
2023-01-12T04:41:42.557Z,10.90
2023-01-12T04:44:10.836Z,8.47
2023-01-12T04:46:38.658Z,18.70
2023-01-12T04:49:06.293Z,17.53
2023-01-12T04:51:33.963Z,12.67
2023-01-12T04:54:01.976Z,12.50
2023-01-12T04:56:29.690Z,13.40
2023-01-12T04:59:00.130Z,8.40
2023-01-12T05:01:29.349Z,11.50
2023-01-12T05:03:57.753Z,10.00
2023-01-12T05:06:26.084Z,9.23
2023-01-12T05:09:11.376Z,9.43
2023-01-12T05:11:39.119Z,13.80
2023-01-12T05:14:08.572Z,9.80
2023-01-12T05:16:36.676Z,7.13
2023-01-12T05:19:04.590Z,12.40
2023-01-12T05:21:32.421Z,9.77
2023-01-12T05:24:00.368Z,11.37
2023-01-12T05:26:28.393Z,14.60
2023-01-12T05:28:56.090Z,8.83
2023-01-12T05:31:25.185Z,16.40
2023-01-12T05:33:53.096Z,7.93
2023-01-12T05:36:21.686Z,8.53
2023-01-12T05:38:49.312Z,4.90
2023-01-12T05:41:17.040Z,7.87
2023-01-12T05:43:50.473Z,9.47
2023-01-12T05:46:18.965Z,12.00
2023-01-12T05:48:48.509Z,8.50
2023-01-12T05:51:16.560Z,11.73
2023-01-12T05:53:44.504Z,7.00
2023-01-12T05:56:13.075Z,15.03
2023-01-12T05:58:40.723Z,8.60
2023-01-12T06:01:09.349Z,10.93
2023-01-12T06:03:37.614Z,9.77
2023-01-12T06:06:07.022Z,9.40
2023-01-12T06:08:35.032Z,13.63
2023-01-12T06:11:03.264Z,8.83
2023-01-12T06:13:48.447Z,10.90
2023-01-12T06:16:18.566Z,7.93
2023-01-12T06:18:46.347Z,6.77
2023-01-12T06:21:15.447Z,10.67
2023-01-12T06:23:43.157Z,17.37
2023-01-12T06:26:10.991Z,8.87
2023-01-12T06:28:39.396Z,12.10
2023-01-12T06:31:08.979Z,10.53
2023-01-12T06:33:38.133Z,16.63
2023-01-12T06:36:06.232Z,7.20
2023-01-12T06:38:35.940Z,8.30
2023-01-12T06:41:04.163Z,11.13
2023-01-12T06:43:31.919Z,11.27
2023-01-12T06:45:59.979Z,13.23
2023-01-12T06:48:39.237Z,9.87
2023-01-12T06:51:07.356Z,11.27
2023-01-12T06:53:36.634Z,6.30
2023-01-12T06:56:04.775Z,8.53
2023-01-12T06:58:32.575Z,9.30
2023-01-12T07:01:03.873Z,13.00
2023-01-12T07:03:31.707Z,12.90
2023-01-12T07:05:59.485Z,13.33
2023-01-12T07:08:29.016Z,13.00
2023-01-12T07:11:01.191Z,7.73
2023-01-12T07:13:29.168Z,12.57
2023-01-12T07:15:58.974Z,8.93
2023-01-12T07:18:27.071Z,12.63
2023-01-12T07:20:55.014Z,11.13
2023-01-12T07:23:22.718Z,8.63
2023-01-12T07:25:50.376Z,14.30
2023-01-12T07:28:19.964Z,16.60
2023-01-12T07:30:47.761Z,12.30
2023-01-12T07:33:18.508Z,14.90
2023-01-12T07:35:46.733Z,11.00
2023-01-12T07:38:15.302Z,10.40
2023-01-12T07:40:42.980Z,9.20
2023-01-12T07:43:11.988Z,8.50
2023-01-12T07:45:41.196Z,15.03
2023-01-12T07:48:09.165Z,10.83
2023-01-12T07:50:38.004Z,4.87
2023-01-12T07:53:05.708Z,11.20
2023-01-12T07:55:33.918Z,9.80
2023-01-12T07:58:03.861Z,8.03
2023-01-12T08:00:32.430Z,8.40
2023-01-12T08:03:07.794Z,9.13
2023-01-12T08:05:37.605Z,10.70
2023-01-12T08:08:05.667Z,10.43
2023-01-12T08:10:34.126Z,10.53
2023-01-12T08:13:01.990Z,8.47
2023-01-12T08:15:32.766Z,7.60
2023-01-12T08:18:05.981Z,8.20
2023-01-12T08:20:36.371Z,13.13
2023-01-12T08:23:08.591Z,10.17
2023-01-12T08:25:44.299Z,6.70
2023-01-12T08:28:15.302Z,10.47
2023-01-12T08:30:43.261Z,8.70
2023-01-12T08:33:10.924Z,11.33
2023-01-12T08:35:40.331Z,8.20
2023-01-12T08:38:08.023Z,10.57
2023-01-12T08:40:53.575Z,9.33
2023-01-12T08:43:35.192Z,7.30
2023-01-12T08:46:07.799Z,6.60
2023-01-12T08:48:36.066Z,8.17
2023-01-12T08:51:05.327Z,6.70
2023-01-12T08:53:33.929Z,5.83
2023-01-12T08:56:01.549Z,7.43
2023-01-12T08:58:29.551Z,7.20
2023-01-12T09:00:57.378Z,7.50
2023-01-12T09:03:25.125Z,10.10
2023-01-12T09:05:53.028Z,6.13
2023-01-12T09:08:22.544Z,9.00
2023-01-12T09:10:50.268Z,10.70
2023-01-12T09:13:18.081Z,10.37
2023-01-12T09:16:01.205Z,5.27
2023-01-12T09:18:33.757Z,4.20
2023-01-12T09:21:02.788Z,5.60
2023-01-12T09:23:31.970Z,4.60
2023-01-12T09:26:03.618Z,7.20
2023-01-12T09:28:31.830Z,6.97
2023-01-12T09:31:04.313Z,5.80
2023-01-12T09:33:32.995Z,8.23
2023-01-12T09:36:01.422Z,9.60
2023-01-12T09:38:29.898Z,6.77
2023-01-12T09:41:02.169Z,7.30
2023-01-12T09:43:47.690Z,10.27
2023-01-12T09:46:36.031Z,7.40
2023-01-12T09:49:04.141Z,6.30
2023-01-12T09:51:35.402Z,6.97
2023-01-12T09:54:04.631Z,9.00
2023-01-12T09:56:39.473Z,72.43
2023-01-12T09:59:18.499Z,6.87
2023-01-12T10:01:46.978Z,12.83
2023-01-12T10:04:15.117Z,5.67
2023-01-12T10:06:43.468Z,4.97
2023-01-12T10:09:13.340Z,7.77
2023-01-12T10:11:44.959Z,10.00
2023-01-12T10:14:30.830Z,10.30
2023-01-12T10:17:05.840Z,11.80
2023-01-12T10:19:38.599Z,7.87
2023-01-12T10:22:12.794Z,4.87
2023-01-12T10:24:41.654Z,9.47
2023-01-12T10:27:11.972Z,5.50
2023-01-12T10:29:39.950Z,10.33
2023-01-12T10:32:10.034Z,6.17
2023-01-12T10:34:50.909Z,7.00
2023-01-12T10:37:21.136Z,6.37
2023-01-12T10:39:52.247Z,5.80
2023-01-12T10:42:41.173Z,8.10
2023-01-12T10:45:17.332Z,7.73
2023-01-12T10:47:46.240Z,11.80
2023-01-12T10:50:21.619Z,6.73
2023-01-12T10:52:52.003Z,16.70
2023-01-12T10:55:20.636Z,11.83
2023-01-12T10:57:50.289Z,8.50
2023-01-12T11:00:21.301Z,8.70
2023-01-12T11:02:49.013Z,8.83
2023-01-12T11:05:36.772Z,5.00
2023-01-12T11:08:04.754Z,12.40
2023-01-12T11:10:33.098Z,10.40
2023-01-12T11:13:04.204Z,11.40
2023-01-12T11:15:38.870Z,7.93
2023-01-12T11:18:19.671Z,10.63
2023-01-12T11:20:49.882Z,6.80
2023-01-12T11:23:22.203Z,11.50
2023-01-12T11:25:51.096Z,10.40
2023-01-12T11:28:23.943Z,10.40
2023-01-12T11:30:53.818Z,10.33
2023-01-12T11:33:24.004Z,10.30
2023-01-12T11:35:54.115Z,10.37
2023-01-12T11:38:25.524Z,9.87
2023-01-12T11:40:55.614Z,8.47
2023-01-12T11:43:50.634Z,10.43
2023-01-12T11:46:22.411Z,10.77
2023-01-12T11:48:55.869Z,8.77
2023-01-12T11:51:23.608Z,4.77
2023-01-12T11:53:51.266Z,7.20
2023-01-12T11:56:26.738Z,6.97
2023-01-12T11:59:01.173Z,7.20
2023-01-12T12:01:32.735Z,4.70
2023-01-12T12:04:04.038Z,5.83
2023-01-12T12:06:38.582Z,6.00
2023-01-12T12:09:15.158Z,6.90
2023-01-12T12:11:47.953Z,8.27
2023-01-12T12:14:28.888Z,10.43
2023-01-12T12:17:01.349Z,10.30
2023-01-12T12:19:35.125Z,8.70
2023-01-12T12:22:09.361Z,8.03
2023-01-12T12:24:48.937Z,6.83
2023-01-12T12:27:20.574Z,4.60
2023-01-12T12:30:03.319Z,8.20
2023-01-12T12:32:35.237Z,3.90
2023-01-12T12:35:19.474Z,5.63
2023-01-12T12:37:52.285Z,3.20
2023-01-12T12:40:26.051Z,7.20
2023-01-12T12:43:18.372Z,6.47
2023-01-12T12:45:49.777Z,5.30
2023-01-12T12:48:21.413Z,6.80
2023-01-12T12:50:53.734Z,10.80
2023-01-12T12:53:24.063Z,2.43
2023-01-12T12:55:52.582Z,3.00
2023-01-12T12:58:31.189Z,6.00
2023-01-12T13:01:17.628Z,2.50
2023-01-12T13:03:51.044Z,4.63
2023-01-12T13:06:20.756Z,3.13
2023-01-12T13:08:49.498Z,6.27
2023-01-12T13:11:17.761Z,3.17
2023-01-12T13:13:59.035Z,7.27
2023-01-12T13:16:42.485Z,6.40
2023-01-12T13:19:28.355Z,4.70
2023-01-12T13:21:59.042Z,5.57
2023-01-12T13:24:28.444Z,2.90
2023-01-12T13:27:00.499Z,3.40
2023-01-12T13:29:44.412Z,3.90
2023-01-12T13:32:31.553Z,3.23
2023-01-12T13:34:59.238Z,7.37
2023-01-12T13:37:35.343Z,1.90
2023-01-12T13:40:05.530Z,3.40
2023-01-12T13:42:51.852Z,3.50
2023-01-12T13:45:20.160Z,4.70
2023-01-12T13:47:49.074Z,2.23
2023-01-12T13:50:18.475Z,1.87
2023-01-12T13:52:58.112Z,6.13
2023-01-12T13:55:28.184Z,3.53
2023-01-12T13:57:57.089Z,4.13
2023-01-12T14:00:25.256Z,2.37
2023-01-12T14:02:53.654Z,4.57
2023-01-12T14:05:35.946Z,4.50
2023-01-12T14:08:12.725Z,3.10
2023-01-12T14:10:47.080Z,3.30
2023-01-12T14:13:31.187Z,2.80
2023-01-12T14:16:20.269Z,2.70
2023-01-12T14:18:50.387Z,2.20
2023-01-12T14:21:22.763Z,2.13
2023-01-12T14:23:52.088Z,2.17
2023-01-12T14:26:22.809Z,2.20
2023-01-12T14:28:51.772Z,2.47
2023-01-12T14:31:21.692Z,2.20
2023-01-12T14:33:51.176Z,3.13
2023-01-12T14:36:21.145Z,2.17
2023-01-12T14:38:49.849Z,2.03
2023-01-12T14:41:39.311Z,2.13
2023-01-12T14:44:40.552Z,2.30
2023-01-12T14:47:09.156Z,1.70
2023-01-12T14:49:38.300Z,2.73
2023-01-12T14:52:23.166Z,2.13
2023-01-12T14:54:52.062Z,2.03
2023-01-12T14:57:23.393Z,1.53
2023-01-12T14:59:51.439Z,2.80
2023-01-12T15:02:27.158Z,1.90
2023-01-12T15:04:57.478Z,3.30
2023-01-12T15:07:26.531Z,4.97
2023-01-12T15:09:55.222Z,1.97
2023-01-12T15:12:39.459Z,2.70
2023-01-12T15:15:15.510Z,5.90
2023-01-12T15:18:01.197Z,2.53
2023-01-12T15:20:47.346Z,1.60
2023-01-12T15:23:32.695Z,2.50
2023-01-12T15:26:02.468Z,1.10
2023-01-12T15:28:32.064Z,2.30
2023-01-12T15:30:59.897Z,2.90
2023-01-12T15:33:28.298Z,3.53
2023-01-12T15:35:56.308Z,3.10
2023-01-12T15:38:28.260Z,2.90
2023-01-12T15:40:55.965Z,2.23
2023-01-12T15:43:23.654Z,2.40
2023-01-12T15:45:54.850Z,3.07
2023-01-12T15:48:22.618Z,1.77
2023-01-12T15:50:50.419Z,2.50
2023-01-12T15:53:19.776Z,1.83
2023-01-12T15:55:49.614Z,4.53
2023-01-12T15:58:19.494Z,1.97
2023-01-12T16:00:47.329Z,3.70
2023-01-12T16:03:49.011Z,1.20
2023-01-12T16:06:06.111Z,2.57
2023-01-12T16:08:33.751Z,2.90
2023-01-12T16:11:13.805Z,2.47
2023-01-12T16:13:41.882Z,2.50
2023-01-12T16:16:14.428Z,2.13
2023-01-12T16:18:43.732Z,1.77
2023-01-12T16:21:15.775Z,2.17
2023-01-12T16:23:43.643Z,4.80
2023-01-12T16:26:11.465Z,2.27
2023-01-12T16:28:39.896Z,2.17
2023-01-12T16:31:07.951Z,2.90
2023-01-12T16:33:36.037Z,2.73
2023-01-12T16:36:06.093Z,4.20
2023-01-12T16:38:36.125Z,4.77
2023-01-12T16:41:08.069Z,3.23
2023-01-12T16:43:37.335Z,1.87
2023-01-12T16:46:05.666Z,1.80
2023-01-12T16:48:34.059Z,3.83
2023-01-12T16:51:01.826Z,2.10
2023-01-12T16:53:31.453Z,2.53
2023-01-12T16:56:00.717Z,2.53
2023-01-12T16:58:28.378Z,3.20
2023-01-12T17:00:58.455Z,3.13
2023-01-12T17:03:26.790Z,3.30
2023-01-12T17:05:54.592Z,2.17
2023-01-12T17:08:22.541Z,3.00
2023-01-12T17:10:51.916Z,8.63
2023-01-12T17:13:19.952Z,2.83
2023-01-12T17:15:48.363Z,2.60
2023-01-12T17:18:16.576Z,4.00
2023-01-12T17:20:44.601Z,4.53
2023-01-12T17:23:12.820Z,6.73
2023-01-12T17:25:41.040Z,11.03
2023-01-12T17:28:10.565Z,5.37
2023-01-12T17:30:40.474Z,2.00
2023-01-12T17:33:08.186Z,3.13
2023-01-12T17:35:35.841Z,3.07
2023-01-12T17:38:05.718Z,2.07
2023-01-12T17:40:33.445Z,2.40
2023-01-12T17:43:03.006Z,3.17
2023-01-12T17:45:33.543Z,3.30
2023-01-12T17:48:01.978Z,2.23
2023-01-12T17:50:29.700Z,3.83
2023-01-12T17:52:57.448Z,3.27
2023-01-12T17:55:25.362Z,2.53
2023-01-12T17:57:53.399Z,3.10
2023-01-12T18:00:21.575Z,2.00
2023-01-12T18:02:51.076Z,2.37
2023-01-12T18:05:18.891Z,2.10
2023-01-12T18:07:46.596Z,2.73
2023-01-12T18:10:14.682Z,5.07
2023-01-12T18:12:42.356Z,11.43
2023-01-12T18:15:11.128Z,2.40
2023-01-12T18:17:39.272Z,3.97
2023-01-12T18:20:09.139Z,2.70
2023-01-12T18:22:37.177Z,3.07
2023-01-12T18:25:05.773Z,2.20
2023-01-12T18:27:33.580Z,4.30
2023-01-12T18:30:01.221Z,5.60
2023-01-12T18:32:29.134Z,4.20
2023-01-12T18:34:57.982Z,2.20
2023-01-12T18:37:27.095Z,3.20
2023-01-12T18:39:54.983Z,2.27
2023-01-12T18:42:40.648Z,2.60
2023-01-12T18:45:08.730Z,3.10
2023-01-12T18:47:53.868Z,4.10
2023-01-12T18:50:39.083Z,5.87
2023-01-12T18:53:25.426Z,3.20
2023-01-12T18:55:55.438Z,2.40
2023-01-12T18:58:24.362Z,1.90
2023-01-12T19:00:52.553Z,4.27
2023-01-12T19:03:20.396Z,2.87
2023-01-12T19:05:58.798Z,2.50
2023-01-12T19:08:46.803Z,2.37
2023-01-12T19:11:15.436Z,2.77
2023-01-12T19:14:00.660Z,2.57
2023-01-12T19:16:46.069Z,2.30
2023-01-12T19:19:13.933Z,2.00
2023-01-12T19:22:04.443Z,3.00
2023-01-12T19:24:50.796Z,3.93
2023-01-12T19:27:35.981Z,2.23
2023-01-12T19:30:03.973Z,2.00
2023-01-12T19:32:32.243Z,2.33
2023-01-12T19:35:10.180Z,2.40
2023-01-12T19:37:42.502Z,2.73
2023-01-12T19:40:18.502Z,3.67
2023-01-12T19:43:05.728Z,1.60
2023-01-12T19:45:33.782Z,1.97
2023-01-12T19:48:01.425Z,2.70
2023-01-12T19:50:29.262Z,1.77
2023-01-12T19:52:57.383Z,2.43
2023-01-12T19:55:26.606Z,2.03
2023-01-12T19:57:54.716Z,2.30
2023-01-12T20:00:22.636Z,6.83
2023-01-12T20:02:50.374Z,4.47
2023-01-12T20:05:22.745Z,1.57
2023-01-12T20:07:51.177Z,1.50
2023-01-12T20:10:18.937Z,1.10
2023-01-12T20:12:48.201Z,1.77
2023-01-12T20:15:18.016Z,3.57
2023-01-12T20:17:47.115Z,1.47
2023-01-12T20:20:14.821Z,1.10
2023-01-12T20:22:42.639Z,1.23
2023-01-12T20:25:10.943Z,1.20
2023-01-12T20:27:39.432Z,9.03
2023-01-12T20:30:10.672Z,1.33
2023-01-12T20:32:42.694Z,5.03
2023-01-12T20:35:11.231Z,1.20
2023-01-12T20:37:38.978Z,2.27
2023-01-12T20:40:07.508Z,1.90
2023-01-12T20:42:35.149Z,2.00
2023-01-12T20:45:03.311Z,7.30
2023-01-12T20:47:33.626Z,2.30
2023-01-12T20:50:01.937Z,1.87
2023-01-12T20:52:29.664Z,2.50
2023-01-12T20:54:57.992Z,2.60
2023-01-12T20:57:25.681Z,1.90
2023-01-12T20:59:54.724Z,2.07
2023-01-12T21:02:23.728Z,3.43
2023-01-12T21:04:52.893Z,1.90
2023-01-12T21:07:21.836Z,3.30
2023-01-12T21:09:50.070Z,2.60
2023-01-12T21:12:17.744Z,1.40
2023-01-12T21:14:45.403Z,1.60
2023-01-12T21:17:13.423Z,5.00
2023-01-12T21:19:41.055Z,1.53
2023-01-12T21:22:10.394Z,1.50
2023-01-12T21:24:39.616Z,2.80
2023-01-12T21:27:07.295Z,2.80
2023-01-12T21:29:35.180Z,4.00
2023-01-12T21:32:03.336Z,3.33
2023-01-12T21:34:31.118Z,2.30
2023-01-12T21:36:59.227Z,1.83
2023-01-12T21:39:28.353Z,3.07
2023-01-12T21:42:13.384Z,2.20
2023-01-12T21:44:41.403Z,2.80
2023-01-12T21:47:09.125Z,2.03
2023-01-12T21:49:37.163Z,4.00
2023-01-12T21:52:05.032Z,1.87
2023-01-12T21:54:33.991Z,4.60
2023-01-12T21:57:01.658Z,2.80
2023-01-12T21:59:29.720Z,1.77
2023-01-12T22:01:57.571Z,1.60
2023-01-12T22:04:25.306Z,3.23
2023-01-12T22:06:53.208Z,2.13
2023-01-12T22:09:21.033Z,2.03
2023-01-12T22:11:50.037Z,2.20
2023-01-12T22:14:17.997Z,2.50
2023-01-12T22:16:45.901Z,1.67
2023-01-12T22:19:14.176Z,4.00
2023-01-12T22:21:41.895Z,3.60
2023-01-12T22:24:09.740Z,3.17
2023-01-12T22:26:37.418Z,2.70
2023-01-12T22:29:07.047Z,1.50
2023-01-12T22:31:34.753Z,2.63
2023-01-12T22:34:06.936Z,2.97
2023-01-12T22:36:36.989Z,2.70
2023-01-12T22:39:04.757Z,2.23
2023-01-12T22:41:32.382Z,4.70
2023-01-12T22:44:01.672Z,2.70
2023-01-12T22:46:30.730Z,2.47
2023-01-12T22:48:59.798Z,2.00
2023-01-12T22:51:28.366Z,1.83
2023-01-12T22:53:57.547Z,3.23
2023-01-12T22:56:26.235Z,2.53
2023-01-12T22:58:55.022Z,2.77
2023-01-12T23:01:23.515Z,2.10
2023-01-12T23:03:55.478Z,2.43
2023-01-12T23:06:23.732Z,2.23
2023-01-12T23:08:51.409Z,3.23
2023-01-12T23:11:20.408Z,1.90
2023-01-12T23:13:48.248Z,2.80
2023-01-12T23:16:19.993Z,3.23
2023-01-12T23:18:49.761Z,3.87
2023-01-12T23:21:20.299Z,2.13
2023-01-12T23:23:48.725Z,3.93
2023-01-12T23:26:17.974Z,3.00
2023-01-12T23:28:47.292Z,2.93
2023-01-12T23:31:16.165Z,2.43
2023-01-12T23:33:45.371Z,3.50
2023-01-12T23:36:14.240Z,3.50
2023-01-12T23:38:43.690Z,2.97
2023-01-12T23:41:14.743Z,2.90
2023-01-12T23:43:43.125Z,3.27
2023-01-12T23:46:11.414Z,2.60
2023-01-12T23:48:39.887Z,2.37
2023-01-12T23:51:07.666Z,2.33
2023-01-12T23:53:35.653Z,2.60
2023-01-12T23:56:09.632Z,1.83
2023-01-12T23:58:37.577Z,1.73
